Terminal Aerodrome Forecast
Issued by NWS

Home | Current Version | Previous Version | Text Only | Print | Product List | Glossary On
Versions: 1 2 3 4 5 6 7 8 9 10 11 12 13 14 15 16 17 18 19 20 21 22 23 24 25 26 27 28 29 30 31 32 33 34 35 36 37 38 39 40 41 42 43 44 45
000
FTUS42 KRAH 111125
TAFRWI
TAF
KRWI 111125Z 1112/1212 01003KT 3SM BR SCT005 OVC015
      TEMPO 1112/1113 1 1/2SM BR BKN005
     FM111500 02004KT P6SM SCT015 BKN250
     FM111800 09006KT P6SM SCT045
     FM120600 07004KT 3SM BR FEW003=

USA.gov is the U.S. government's official web portal to all federal, state and local government web resources and services.